Home   Weather   South Africa   Cape Town   Past weeks
Flag for South Africa

Past Weather in Cape Town, South Africa — February 2022

Currently: 64 °F. Clear. (Weather station: Cape Town International Airport, South Africa). See more current weather

February 2022 Weather in Cape Town — Graph

°F

High & Low Weather Summary for February 2022

 TemperatureHumidityPressure
High91 °F (Feb 14, 2:00 pm)100% (Feb 2, 7:31 pm)30.12 "Hg (Feb 2, 7:31 pm)
Low57 °F (Feb 17, 4:00 am)32% (Feb 17, 1:00 pm)29.71 "Hg (Feb 1, 3:00 am)
Average70 °F72%29.91 "Hg
* Reported Feb 1 12:00 am — Feb 28 11:00 pm, Cape Town. Weather by CustomWeather, © 2022

Note: Actual official high and low records may vary slightly from our data, if they occured in-between our weather recording intervals... More about our weather records

Cape Town Weather History for February 1, 2022

Scroll right to see more
 ConditionsComfort  
Time TempWeatherWind HumidityBarometerVisibility
12:00 am
Tue, Feb 1
70 °FClear.6 mph78%29.74 "Hg10 mi
1:00 am68 °FClear.2 mph83%29.74 "Hg10 mi
2:00 am68 °FClear.1 mph83%29.74 "Hg10 mi
3:00 am68 °FClear.3 mph83%29.71 "Hg10 mi
4:00 am66 °FClear.2 mph83%29.71 "Hg10 mi
5:00 am68 °FClear.9 mph78%29.74 "Hg10 mi
6:00 am66 °FClear.13 mph73%29.74 "Hg10 mi
7:00 am68 °FPassing clouds.5 mph73%29.74 "HgN/A
7:25 am72 °FSunny.6 mph65%29.77 "Hg10 mi
7:57 am75 °FPassing clouds.6 mph61%29.77 "HgN/A
8:00 am75 °FPassing clouds.6 mph61%29.77 "HgN/A
9:00 am79 °FPassing clouds.7 mph51%29.80 "HgN/A
10:25 am86 °FPassing clouds.7 mph43%29.77 "HgN/A
11:00 am88 °FPassing clouds.8 mph40%29.77 "HgN/A
12:00 pm86 °FSunny.12 mph43%29.77 "Hg10 mi
1:00 pm88 °FSunny.14 mph40%29.74 "Hg10 mi
2:00 pm86 °FPassing clouds.16 mph43%29.74 "HgN/A
3:00 pm86 °FPassing clouds.8 mph43%29.74 "HgN/A
4:00 pm77 °FPassing clouds.22 mph57%29.71 "HgN/A
5:00 pm73 °FPassing clouds.16 mph65%29.71 "HgN/A
6:00 pm73 °FPassing clouds.14 mph69%29.71 "HgN/A
6:10 pm73 °FClear.12 mph69%29.74 "Hg2 mi
7:00 pm70 °FSunny.14 mph78%29.74 "Hg10 mi
8:00 pm68 °FPassing clouds.10 mph83%29.74 "HgN/A
9:00 pm66 °FPassing clouds.9 mph94%29.77 "HgN/A
10:00 pm66 °FPassing clouds.8 mph94%29.77 "HgN/A
11:00 pm68 °FPassing clouds.9 mph88%29.77 "HgN/A
Weather by CustomWeather, © 2022

See weather overview